Time;durP1;ratioP1;P1;durP2;ratioP2;P2;SDS_P1;SDS_P2;PMS_P1;PMS_P2;Temp;Humidity;BMP_temperature;BMP_pressure;BME280_temperature;BME280_humidity;BME280_pressure;Samples;Min_cycle;Max_cycle;Signal;HPM_P1;HPM_P2
2021/12/20 00:01:37;;;;;;;10.73;5.90;;;;;;;;;;5030763;28;20157;-72
2021/12/20 00:04:02;;;;;;;9.52;5.82;;;;;;;;;;5030640;28;20025;-72
2021/12/20 00:06:28;;;;;;;9.70;5.30;;;;;;;;;;5030069;28;20030;-72
2021/12/20 00:08:53;;;;;;;9.35;5.43;;;;;;;;;;5029398;28;20487;-72
2021/12/20 00:11:18;;;;;;;11.20;5.28;;;;;;;;;;5030429;28;20540;-72
2021/12/20 00:13:44;;;;;;;9.93;5.00;;;;;;;;;;5030424;28;20108;-74
2021/12/20 00:16:09;;;;;;;9.48;5.45;;;;;;;;;;5030130;28;20135;-74
2021/12/20 00:18:34;;;;;;;10.25;5.47;;;;;;;;;;5030245;28;20686;-72
2021/12/20 00:21:00;;;;;;;11.30;5.47;;;;;;;;;;5030053;28;20056;-72
2021/12/20 00:23:26;;;;;;;12.35;6.03;;;;;;;;;;5030080;28;20033;-72
2021/12/20 00:25:51;;;;;;;11.43;6.28;;;;;;;;;;5029871;28;20071;-72
2021/12/20 00:28:18;;;;;;;10.77;5.70;;;;;;;;;;5029806;28;20025;-72
2021/12/20 00:30:44;;;;;;;12.80;6.07;;;;;;;;;;5030034;28;20056;-72
2021/12/20 00:33:10;;;;;;;13.15;5.57;;;;;;;;;;5030123;28;20052;-72
2021/12/20 00:35:35;;;;;;;8.60;5.07;;;;;;;;;;5029667;28;20025;-72
2021/12/20 00:40:45;;;;;;;12.43;6.18;;;;;;;;;;5030080;28;20515;-72
2021/12/20 00:43:10;;;;;;;10.27;5.63;;;;;;;;;;5029891;28;20057;-72
2021/12/20 00:45:38;;;;;;;8.57;5.05;;;;;;;;;;5029258;28;20446;-72
2021/12/20 00:48:04;;;;;;;9.25;4.47;;;;;;;;;;5029418;28;20487;-72
2021/12/20 00:50:30;;;;;;;8.45;4.70;;;;;;;;;;5029729;28;20025;-71
2021/12/20 00:52:56;;;;;;;8.10;4.10;;;;;;;;;;5029636;28;20383;-72
2021/12/20 00:55:24;;;;;;;9.57;4.78;;;;;;;;;;5009669;28;20502;-72
2021/12/20 00:57:51;;;;;;;9.30;4.93;;;;;;;;;;5027798;28;20035;-72
2021/12/20 01:00:22;;;;;;;7.57;4.45;;;;;;;;;;5029967;28;20034;-72
2021/12/20 01:02:48;;;;;;;7.72;4.05;;;;;;;;;;5028558;28;20463;-72
2021/12/20 01:05:13;;;;;;;7.65;3.75;;;;;;;;;;5029029;28;20034;-72
2021/12/20 01:07:39;;;;;;;5.45;3.30;;;;;;;;;;5028913;28;20513;-72
2021/12/20 01:10:08;;;;;;;9.23;4.60;;;;;;;;;;5029556;28;20509;-72
2021/12/20 01:12:43;;;;;;;8.35;4.68;;;;;;;;;;5029454;28;20021;-72
2021/12/20 01:15:31;;;;;;;7.78;4.38;;;;;;;;;;5029253;28;20242;-72
2021/12/20 01:17:57;;;;;;;7.13;4.35;;;;;;;;;;5013598;28;20037;-72
2021/12/20 01:20:22;;;;;;;7.45;4.10;;;;;;;;;;5028585;28;20033;-72
2021/12/20 01:22:49;;;;;;;6.40;4.13;;;;;;;;;;5029295;28;20032;-72
2021/12/20 01:25:15;;;;;;;7.53;3.50;;;;;;;;;;5029165;28;20082;-72
2021/12/20 01:27:41;;;;;;;7.20;4.38;;;;;;;;;;5028600;28;20100;-72
2021/12/20 01:30:10;;;;;;;5.82;3.13;;;;;;;;;;5029659;28;20523;-72
2021/12/20 01:32:35;;;;;;;5.30;3.20;;;;;;;;;;5028917;28;20076;-72
2021/12/20 01:35:00;;;;;;;5.45;2.97;;;;;;;;;;5028894;28;20045;-72
2021/12/20 01:37:26;;;;;;;5.38;2.80;;;;;;;;;;5028552;28;20504;-72
2021/12/20 01:39:53;;;;;;;4.38;2.80;;;;;;;;;;5029348;28;20030;-72
2021/12/20 01:42:20;;;;;;;3.95;2.38;;;;;;;;;;5029095;28;20587;-72
2021/12/20 01:44:46;;;;;;;4.65;2.72;;;;;;;;;;5029337;28;20056;-72
2021/12/20 01:47:13;;;;;;;6.03;2.95;;;;;;;;;;5029008;28;20033;-71
2021/12/20 01:49:52;;;;;;;5.30;3.28;;;;;;;;;;5029081;28;20037;-72
2021/12/20 01:52:20;;;;;;;4.85;2.72;;;;;;;;;;5029211;28;20033;-72
2021/12/20 01:54:46;;;;;;;7.28;2.92;;;;;;;;;;5029053;28;20029;-72
2021/12/20 01:57:11;;;;;;;5.95;2.97;;;;;;;;;;5028915;28;20025;-72
2021/12/20 01:59:40;;;;;;;6.75;3.20;;;;;;;;;;5028983;28;20028;-72
2021/12/20 02:02:06;;;;;;;6.00;3.35;;;;;;;;;;5028754;28;20024;-71
2021/12/20 02:04:31;;;;;;;5.55;2.80;;;;;;;;;;5028551;28;20029;-72
2021/12/20 02:06:57;;;;;;;5.22;3.15;;;;;;;;;;5028857;28;20019;-72
2021/12/20 02:09:22;;;;;;;6.07;2.80;;;;;;;;;;5028963;28;20060;-72
2021/12/20 02:11:50;;;;;;;4.78;3.17;;;;;;;;;;5028922;28;20537;-72
2021/12/20 02:14:17;;;;;;;4.78;3.17;;;;;;;;;;5028691;28;20418;-72
2021/12/20 02:16:43;;;;;;;5.75;2.95;;;;;;;;;;5028488;28;20038;-72
2021/12/20 02:19:12;;;;;;;5.15;3.10;;;;;;;;;;5028748;28;20021;-72
2021/12/20 02:21:39;;;;;;;6.22;3.25;;;;;;;;;;5028782;28;20091;-72
2021/12/20 02:24:04;;;;;;;5.85;2.90;;;;;;;;;;5027132;28;20087;-72
2021/12/20 02:26:30;;;;;;;4.63;2.70;;;;;;;;;;5028887;28;20044;-72
2021/12/20 02:29:00;;;;;;;5.03;2.95;;;;;;;;;;5028799;28;20077;-72
2021/12/20 02:37:14;;;;;;;4.45;2.42;;;;;;;;;;5028613;28;20494;-72
2021/12/20 02:39:39;;;;;;;4.53;2.47;;;;;;;;;;5030839;28;20492;-72
2021/12/20 02:42:05;;;;;;;4.40;2.78;;;;;;;;;;5032032;28;20037;-72
2021/12/20 02:44:31;;;;;;;5.75;2.67;;;;;;;;;;5031873;28;20435;-72
2021/12/20 02:49:24;;;;;;;5.32;2.80;;;;;;;;;;5032000;28;20033;-72
2021/12/20 02:51:52;;;;;;;5.00;2.90;;;;;;;;;;5032144;28;20087;-72
2021/12/20 02:54:20;;;;;;;5.38;2.55;;;;;;;;;;5031847;28;20495;-72
2021/12/20 02:56:47;;;;;;;4.13;2.42;;;;;;;;;;5031818;28;20099;-72
2021/12/20 02:59:13;;;;;;;3.72;2.55;;;;;;;;;;5032335;28;20043;-72
2021/12/20 03:01:42;;;;;;;4.20;2.58;;;;;;;;;;5039220;28;20439;-72
2021/12/20 03:04:08;;;;;;;4.45;2.63;;;;;;;;;;5032260;28;20454;-72
2021/12/20 03:06:43;;;;;;;5.07;2.47;;;;;;;;;;5032061;28;20052;-72
2021/12/20 03:09:12;;;;;;;4.22;2.58;;;;;;;;;;5032999;28;20079;-74
2021/12/20 03:11:38;;;;;;;4.40;2.35;;;;;;;;;;5031902;28;20030;-73
2021/12/20 03:14:11;;;;;;;4.40;2.42;;;;;;;;;;5031450;28;20036;-73
2021/12/20 03:16:37;;;;;;;4.30;2.70;;;;;;;;;;5031305;28;20036;-73
2021/12/20 03:19:04;;;;;;;4.35;2.55;;;;;;;;;;5031352;28;20041;-73
2021/12/20 03:21:29;;;;;;;4.18;2.60;;;;;;;;;;5031584;28;20388;-73
2021/12/20 03:23:54;;;;;;;6.38;3.47;;;;;;;;;;5031339;28;20026;-73
2021/12/20 03:26:20;;;;;;;6.50;3.53;;;;;;;;;;5031706;28;20422;-73
2021/12/20 03:28:45;;;;;;;4.78;2.83;;;;;;;;;;5030977;28;20472;-74
2021/12/20 03:31:12;;;;;;;5.97;3.25;;;;;;;;;;5031431;28;20021;-74
2021/12/20 03:33:37;;;;;;;6.05;3.15;;;;;;;;;;5030595;28;20021;-73
2021/12/20 03:36:03;;;;;;;6.28;3.30;;;;;;;;;;5031126;28;20037;-73
2021/12/20 03:38:28;;;;;;;6.75;3.22;;;;;;;;;;5030978;28;20033;-73
2021/12/20 03:40:53;;;;;;;5.70;2.92;;;;;;;;;;5031361;28;20040;-74
2021/12/20 03:43:19;;;;;;;4.30;2.78;;;;;;;;;;5031338;28;20406;-73
2021/12/20 03:45:48;;;;;;;5.75;2.97;;;;;;;;;;5031143;28;20041;-72
2021/12/20 03:48:14;;;;;;;5.90;2.60;;;;;;;;;;5031037;28;20057;-74
2021/12/20 03:50:39;;;;;;;4.93;3.13;;;;;;;;;;5030875;28;20572;-74
2021/12/20 03:53:05;;;;;;;5.32;3.30;;;;;;;;;;5030934;28;20240;-74
2021/12/20 03:55:30;;;;;;;4.75;2.80;;;;;;;;;;5030464;28;20034;-73
2021/12/20 03:57:55;;;;;;;6.43;3.20;;;;;;;;;;5029308;28;20038;-73
2021/12/20 04:00:20;;;;;;;6.90;3.63;;;;;;;;;;5030814;28;20037;-74
2021/12/20 04:02:47;;;;;;;6.13;3.17;;;;;;;;;;5030832;28;20084;-74
2021/12/20 04:05:13;;;;;;;5.88;3.30;;;;;;;;;;5030738;28;20311;-73
2021/12/20 04:07:39;;;;;;;6.10;3.42;;;;;;;;;;5029907;28;20037;-72
2021/12/20 04:10:07;;;;;;;7.55;4.18;;;;;;;;;;5030597;28;20549;-73
2021/12/20 04:12:32;;;;;;;7.38;4.32;;;;;;;;;;5030486;28;20037;-73
2021/12/20 04:14:58;;;;;;;6.70;4.40;;;;;;;;;;5030208;28;20039;-74
2021/12/20 04:17:23;;;;;;;7.53;4.38;;;;;;;;;;5030036;28;20041;-73
2021/12/20 04:19:49;;;;;;;7.30;4.50;;;;;;;;;;5030076;28;20068;-74
2021/12/20 04:22:19;;;;;;;9.95;5.15;;;;;;;;;;5030453;28;20368;-73
2021/12/20 04:24:44;;;;;;;8.35;4.78;;;;;;;;;;5030432;28;20239;-73
2021/12/20 04:27:10;;;;;;;9.32;4.90;;;;;;;;;;5030178;28;20559;-74
2021/12/20 04:29:35;;;;;;;10.43;4.65;;;;;;;;;;5030162;28;20025;-74
2021/12/20 04:32:01;;;;;;;9.25;5.18;;;;;;;;;;5030256;28;20028;-74
2021/12/20 04:34:27;;;;;;;7.72;4.60;;;;;;;;;;5029636;28;20112;-73
2021/12/20 04:36:53;;;;;;;10.00;4.78;;;;;;;;;;5029931;28;20033;-73
2021/12/20 04:39:22;;;;;;;9.50;4.85;;;;;;;;;;5029991;28;20037;-74
2021/12/20 04:41:47;;;;;;;8.65;4.53;;;;;;;;;;5030548;28;20033;-74
2021/12/20 04:44:12;;;;;;;8.40;4.78;;;;;;;;;;5029889;28;20033;-73
2021/12/20 04:46:37;;;;;;;9.40;4.28;;;;;;;;;;5029783;28;20033;-73
2021/12/20 04:49:05;;;;;;;8.07;4.30;;;;;;;;;;5029757;28;20514;-74
2021/12/20 04:51:30;;;;;;;7.10;4.10;;;;;;;;;;5029834;28;20036;-74
2021/12/20 04:53:56;;;;;;;6.25;4.20;;;;;;;;;;5029040;28;20033;-74
2021/12/20 04:56:21;;;;;;;19.08;9.18;;;;;;;;;;5029111;28;20036;-74
2021/12/20 04:58:47;;;;;;;15.30;7.35;;;;;;;;;;5029733;28;20072;-74
2021/12/20 05:01:12;;;;;;;10.82;7.25;;;;;;;;;;5029667;28;20044;-74
2021/12/20 05:03:37;;;;;;;11.00;7.00;;;;;;;;;;5029398;28;20055;-73
2021/12/20 05:06:03;;;;;;;6.82;4.25;;;;;;;;;;5029437;28;20048;-73
2021/12/20 05:08:34;;;;;;;7.05;3.70;;;;;;;;;;5028974;28;20083;-74
2021/12/20 05:11:04;;;;;;;7.72;4.55;;;;;;;;;;5029532;28;20042;-73
2021/12/20 05:13:30;;;;;;;6.80;4.05;;;;;;;;;;5029514;28;20049;-73
2021/12/20 05:15:55;;;;;;;6.45;3.88;;;;;;;;;;5029459;28;20025;-74
2021/12/20 05:18:20;;;;;;;7.13;3.90;;;;;;;;;;5029149;28;20083;-74
2021/12/20 05:20:46;;;;;;;4.88;3.58;;;;;;;;;;5029189;28;20053;-72
2021/12/20 05:23:11;;;;;;;6.00;4.00;;;;;;;;;;5028905;28;20025;-74
2021/12/20 05:25:37;;;;;;;9.20;4.30;;;;;;;;;;5029097;28;20479;-73
2021/12/20 05:28:03;;;;;;;10.88;4.05;;;;;;;;;;5029662;28;20026;-73
2021/12/20 05:30:29;;;;;;;6.50;3.67;;;;;;;;;;5029391;28;20479;-74
2021/12/20 05:32:54;;;;;;;5.70;3.42;;;;;;;;;;5029401;28;20052;-73
2021/12/20 05:35:21;;;;;;;7.25;3.47;;;;;;;;;;5029063;28;20054;-73
2021/12/20 05:37:46;;;;;;;6.20;3.45;;;;;;;;;;5029410;28;20513;-72
2021/12/20 05:40:13;;;;;;;6.20;3.67;;;;;;;;;;5027929;28;20069;-74
2021/12/20 05:42:39;;;;;;;5.22;3.13;;;;;;;;;;5029283;28;20449;-74
2021/12/20 05:45:06;;;;;;;6.03;3.80;;;;;;;;;;5029063;28;20086;-72
2021/12/20 05:47:31;;;;;;;5.85;3.80;;;;;;;;;;5029194;28;20037;-73
2021/12/20 05:49:57;;;;;;;6.93;3.85;;;;;;;;;;5029042;28;20033;-73
2021/12/20 05:52:22;;;;;;;6.95;3.75;;;;;;;;;;5028697;28;20037;-73
2021/12/20 05:54:47;;;;;;;5.90;3.90;;;;;;;;;;5028760;28;20030;-73
2021/12/20 05:57:13;;;;;;;7.75;4.68;;;;;;;;;;5029301;28;20026;-72
2021/12/20 05:59:38;;;;;;;11.52;4.85;;;;;;;;;;5028807;28;20341;-73
2021/12/20 06:02:04;;;;;;;8.23;5.20;;;;;;;;;;5029254;28;20391;-73
2021/12/20 06:04:29;;;;;;;9.30;6.03;;;;;;;;;;5028713;28;20067;-73
2021/12/20 06:06:55;;;;;;;11.23;6.40;;;;;;;;;;5029987;28;20491;-73
2021/12/20 06:09:20;;;;;;;11.57;5.78;;;;;;;;;;5032535;28;20033;-73
2021/12/20 06:11:45;;;;;;;9.52;5.53;;;;;;;;;;5031379;28;20087;-73
2021/12/20 06:14:11;;;;;;;7.15;4.10;;;;;;;;;;5031712;28;20466;-73
2021/12/20 06:16:36;;;;;;;6.35;3.83;;;;;;;;;;5022967;28;20034;-74
2021/12/20 06:19:03;;;;;;;10.45;5.70;;;;;;;;;;5012872;28;20108;-73
2021/12/20 06:21:28;;;;;;;8.35;5.75;;;;;;;;;;5012742;28;20061;-72
2021/12/20 06:23:53;;;;;;;10.98;6.00;;;;;;;;;;5012703;28;20053;-73
2021/12/20 06:26:23;;;;;;;9.43;6.53;;;;;;;;;;5030923;28;20021;-73
2021/12/20 06:28:49;;;;;;;13.25;6.72;;;;;;;;;;5025058;28;20034;-73
2021/12/20 06:31:14;;;;;;;9.57;6.82;;;;;;;;;;5015497;28;20036;-74
2021/12/20 06:33:39;;;;;;;9.80;7.18;;;;;;;;;;5024568;28;20093;-74
2021/12/20 06:36:05;;;;;;;13.77;7.40;;;;;;;;;;5032146;28;20436;-73
2021/12/20 06:38:32;;;;;;;12.65;6.43;;;;;;;;;;5030468;28;20026;-73
2021/12/20 06:40:57;;;;;;;11.55;5.78;;;;;;;;;;5027512;28;20018;-74
2021/12/20 06:43:22;;;;;;;12.38;6.40;;;;;;;;;;5032258;28;20036;-72
2021/12/20 06:45:48;;;;;;;12.15;6.60;;;;;;;;;;5030047;28;20388;-73
2021/12/20 06:48:13;;;;;;;11.07;5.43;;;;;;;;;;5031940;28;20033;-73
2021/12/20 06:50:38;;;;;;;8.43;5.47;;;;;;;;;;5031740;28;20068;-73
2021/12/20 06:53:05;;;;;;;10.30;5.55;;;;;;;;;;5031969;28;20056;-74
2021/12/20 06:55:32;;;;;;;14.15;8.70;;;;;;;;;;5031272;28;20034;-71
2021/12/20 06:57:57;;;;;;;15.13;8.48;;;;;;;;;;5029652;28;20035;-72
2021/12/20 07:00:23;;;;;;;9.63;6.75;;;;;;;;;;5029899;28;20022;-71
2021/12/20 07:02:48;;;;;;;16.30;8.27;;;;;;;;;;5027421;28;20266;-74
2021/12/20 07:05:14;;;;;;;11.38;7.53;;;;;;;;;;5026310;28;20495;-74
2021/12/20 07:07:39;;;;;;;12.98;7.78;;;;;;;;;;5027856;28;20037;-74
2021/12/20 07:10:05;;;;;;;16.17;7.72;;;;;;;;;;5029102;28;20618;-75
2021/12/20 07:12:34;;;;;;;14.02;8.38;;;;;;;;;;5027875;28;20029;-75
2021/12/20 07:15:00;;;;;;;18.80;10.40;;;;;;;;;;5028000;28;20025;-74
2021/12/20 07:17:25;;;;;;;16.48;10.00;;;;;;;;;;5028677;28;20067;-74
2021/12/20 07:19:51;;;;;;;15.52;9.20;;;;;;;;;;5027030;28;20155;-74
2021/12/20 07:22:16;;;;;;;15.70;9.90;;;;;;;;;;5027464;28;20025;-72
2021/12/20 07:24:41;;;;;;;19.45;11.15;;;;;;;;;;5028053;28;20029;-75
2021/12/20 07:27:09;;;;;;;15.18;9.52;;;;;;;;;;5027825;28;20033;-75
2021/12/20 07:29:36;;;;;;;16.20;9.40;;;;;;;;;;5027850;28;20028;-73
2021/12/20 07:32:01;;;;;;;18.08;9.57;;;;;;;;;;5027502;28;20112;-74
2021/12/20 07:34:27;;;;;;;21.65;10.65;;;;;;;;;;5025697;28;20495;-75
2021/12/20 07:36:53;;;;;;;22.23;10.77;;;;;;;;;;5026156;28;20416;-76
2021/12/20 07:39:18;;;;;;;20.77;10.30;;;;;;;;;;5026840;28;20036;-74
2021/12/20 07:41:44;;;;;;;19.80;10.27;;;;;;;;;;5024684;28;20033;-75
2021/12/20 07:44:10;;;;;;;18.83;9.60;;;;;;;;;;5027283;28;20525;-75
2021/12/20 07:46:35;;;;;;;18.52;9.57;;;;;;;;;;5026264;28;20084;-73
2021/12/20 07:49:00;;;;;;;18.75;9.05;;;;;;;;;;5027311;28;20497;-74
2021/12/20 07:51:25;;;;;;;12.27;7.00;;;;;;;;;;5025013;28;20037;-74
2021/12/20 07:53:51;;;;;;;20.55;10.10;;;;;;;;;;5027254;28;20030;-74
2021/12/20 07:56:17;;;;;;;19.05;9.27;;;;;;;;;;5026329;28;20061;-74
2021/12/20 07:58:43;;;;;;;16.98;8.80;;;;;;;;;;5027175;28;20383;-73
2021/12/20 08:01:08;;;;;;;15.23;8.45;;;;;;;;;;5026931;28;20444;-75
2021/12/20 08:03:38;;;;;;;17.13;7.95;;;;;;;;;;5026816;28;20033;-75
2021/12/20 08:06:03;;;;;;;19.75;9.82;;;;;;;;;;5027097;28;20441;-74
2021/12/20 08:08:28;;;;;;;18.70;9.85;;;;;;;;;;5027461;28;20082;-75
2021/12/20 08:10:54;;;;;;;15.40;6.57;;;;;;;;;;5026824;28;20233;-75
2021/12/20 08:13:19;;;;;;;14.63;7.10;;;;;;;;;;5027460;28;20029;-75
2021/12/20 08:15:45;;;;;;;16.77;7.47;;;;;;;;;;5027395;28;20036;-74
2021/12/20 08:18:10;;;;;;;12.95;6.10;;;;;;;;;;5027026;28;20025;-75
2021/12/20 08:20:36;;;;;;;14.38;6.38;;;;;;;;;;5027670;28;20025;-75
2021/12/20 08:23:04;;;;;;;9.85;5.78;;;;;;;;;;5026907;28;20037;-74
2021/12/20 08:25:29;;;;;;;12.05;6.72;;;;;;;;;;5026401;28;20380;-73
2021/12/20 08:27:54;;;;;;;26.80;10.77;;;;;;;;;;5027124;28;20032;-74
2021/12/20 08:30:22;;;;;;;17.50;7.70;;;;;;;;;;5024314;28;20108;-74
2021/12/20 08:32:48;;;;;;;18.17;8.48;;;;;;;;;;5026496;28;20407;-74
2021/12/20 08:35:14;;;;;;;22.05;9.80;;;;;;;;;;5026776;28;20326;-75
2021/12/20 08:37:39;;;;;;;18.73;10.18;;;;;;;;;;5026325;28;20053;-74
2021/12/20 08:40:07;;;;;;;20.77;8.85;;;;;;;;;;5026723;28;20493;-73
2021/12/20 08:42:33;;;;;;;15.38;8.13;;;;;;;;;;5026464;28;20312;-74
2021/12/20 08:44:58;;;;;;;16.92;7.88;;;;;;;;;;5025327;28;20082;-74
2021/12/20 08:47:23;;;;;;;14.30;7.43;;;;;;;;;;5025737;28;20495;-74
2021/12/20 08:49:49;;;;;;;15.45;7.85;;;;;;;;;;5025973;28;20582;-75
2021/12/20 08:52:14;;;;;;;25.45;11.80;;;;;;;;;;5025838;28;20506;-75
2021/12/20 08:54:40;;;;;;;15.13;7.70;;;;;;;;;;5026287;28;20503;-75
2021/12/20 08:57:07;;;;;;;21.15;8.77;;;;;;;;;;5025730;28;20029;-75
2021/12/20 08:59:33;;;;;;;18.38;7.90;;;;;;;;;;5026021;28;20107;-74
2021/12/20 09:02:00;;;;;;;22.05;7.85;;;;;;;;;;5026368;28;20518;-74
2021/12/20 09:04:26;;;;;;;18.70;7.65;;;;;;;;;;5025780;28;20108;-75
2021/12/20 09:06:51;;;;;;;21.92;9.38;;;;;;;;;;5025392;28;20116;-75
2021/12/20 09:09:17;;;;;;;15.88;7.07;;;;;;;;;;5026273;28;20638;-74
2021/12/20 09:11:43;;;;;;;16.80;7.93;;;;;;;;;;5022066;28;20018;-73
2021/12/20 09:14:09;;;;;;;23.70;10.13;;;;;;;;;;5025399;28;20029;-73
2021/12/20 09:16:34;;;;;;;17.05;7.47;;;;;;;;;;5025695;28;20589;-74
2021/12/20 09:19:00;;;;;;;13.32;7.47;;;;;;;;;;5025417;28;20028;-74
2021/12/20 09:21:25;;;;;;;13.40;6.85;;;;;;;;;;5026198;28;20036;-74
2021/12/20 09:23:51;;;;;;;12.73;5.40;;;;;;;;;;5025086;28;20026;-73
2021/12/20 09:26:18;;;;;;;9.95;5.60;;;;;;;;;;5024879;28;20125;-74
2021/12/20 09:28:43;;;;;;;12.15;5.80;;;;;;;;;;5025194;28;20032;-73
2021/12/20 09:31:09;;;;;;;14.30;6.53;;;;;;;;;;5025600;28;20030;-73
2021/12/20 09:33:34;;;;;;;11.85;6.32;;;;;;;;;;5025867;28;20460;-73
2021/12/20 09:36:00;;;;;;;14.13;6.20;;;;;;;;;;5025341;28;20025;-74
2021/12/20 09:38:28;;;;;;;10.02;5.78;;;;;;;;;;5024479;28;20037;-74
2021/12/20 09:43:42;;;;;;;13.93;6.50;;;;;;;;;;5028804;28;20033;-74
2021/12/20 09:46:08;;;;;;;11.95;5.93;;;;;;;;;;5029804;28;20022;-73
2021/12/20 09:48:35;;;;;;;9.20;5.43;;;;;;;;;;5029262;28;20132;-74
2021/12/20 09:51:01;;;;;;;11.15;4.47;;;;;;;;;;5029435;28;20022;-74
2021/12/20 09:53:26;;;;;;;16.10;5.63;;;;;;;;;;5029145;28;20067;-74
2021/12/20 09:55:52;;;;;;;14.80;5.40;;;;;;;;;;5028409;28;20499;-74
2021/12/20 09:58:21;;;;;;;13.23;4.88;;;;;;;;;;5028318;28;20115;-73
2021/12/20 10:00:48;;;;;;;9.13;5.10;;;;;;;;;;5029841;28;20018;-73
2021/12/20 10:03:13;;;;;;;13.50;5.25;;;;;;;;;;5028861;28;20033;-74
2021/12/20 10:05:39;;;;;;;14.35;4.93;;;;;;;;;;5028885;28;20037;-74
2021/12/20 10:08:13;;;;;;;10.73;4.88;;;;;;;;;;5028618;28;20057;-74
2021/12/20 10:10:48;;;;;;;11.95;4.90;;;;;;;;;;5029146;28;20026;-75
2021/12/20 10:13:22;;;;;;;9.90;4.60;;;;;;;;;;5028304;28;20112;-75
2021/12/20 10:15:47;;;;;;;14.00;5.13;;;;;;;;;;5028388;28;20029;-76
2021/12/20 10:18:13;;;;;;;15.82;5.38;;;;;;;;;;5027732;28;20041;-75
2021/12/20 10:20:40;;;;;;;13.80;5.78;;;;;;;;;;5029295;28;20671;-74
2021/12/20 10:23:36;;;;;;;10.70;4.75;;;;;;;;;;5027127;28;20037;-75
2021/12/20 10:26:10;;;;;;;12.52;5.68;;;;;;;;;;5024855;28;20037;-75
2021/12/20 10:28:37;;;;;;;13.05;5.70;;;;;;;;;;5028813;28;20772;-74
2021/12/20 10:31:11;;;;;;;15.27;5.10;;;;;;;;;;5028086;28;20040;-75
2021/12/20 10:33:38;;;;;;;10.65;4.93;;;;;;;;;;5029476;28;20056;-75
2021/12/20 10:36:13;;;;;;;15.60;5.80;;;;;;;;;;5029407;28;20041;-76
2021/12/20 10:38:49;;;;;;;16.23;5.15;;;;;;;;;;5030674;28;20488;-74
2021/12/20 10:41:33;;;;;;;12.80;4.93;;;;;;;;;;5029109;28;20033;-74
2021/12/20 10:44:02;;;;;;;14.40;5.00;;;;;;;;;;5029449;28;20488;-75
2021/12/20 10:46:34;;;;;;;9.30;4.28;;;;;;;;;;5028280;28;20025;-74
2021/12/20 10:49:11;;;;;;;9.68;4.25;;;;;;;;;;5027330;28;20029;-74
2021/12/20 10:51:39;;;;;;;10.10;4.88;;;;;;;;;;5017496;28;20098;-74
2021/12/20 10:54:10;;;;;;;13.18;5.18;;;;;;;;;;5026964;28;20108;-74
2021/12/20 10:57:05;;;;;;;10.25;5.10;;;;;;;;;;5027614;28;20033;-75
2021/12/20 10:59:35;;;;;;;19.73;4.82;;;;;;;;;;5028036;28;20531;-74
2021/12/20 11:05:23;;;;;;;10.52;3.97;;;;;;;;;;4951514;28;20081;-74
2021/12/20 11:10:38;;;;;;;14.88;3.65;;;;;;;;;;5011335;28;20142;-74
2021/12/20 11:13:15;;;;;;;11.52;3.40;;;;;;;;;;5027080;28;20021;-73
2021/12/20 11:15:40;;;;;;;7.75;3.20;;;;;;;;;;5031179;28;20021;-73
2021/12/20 11:18:15;;;;;;;10.10;3.50;;;;;;;;;;5030277;28;20044;-73
2021/12/20 11:20:41;;;;;;;8.43;3.38;;;;;;;;;;5030358;28;20029;-73
2021/12/20 11:23:11;;;;;;;9.93;3.55;;;;;;;;;;5031224;28;20021;-73
2021/12/20 11:25:36;;;;;;;38.20;19.55;;;;;;;;;;5030608;28;20025;-73
2021/12/20 11:28:03;;;;;;;14.57;6.68;;;;;;;;;;5031398;28;20387;-75
2021/12/20 11:30:28;;;;;;;20.58;8.88;;;;;;;;;;5031243;28;20025;-75
2021/12/20 11:32:55;;;;;;;14.80;7.15;;;;;;;;;;5031734;28;20029;-73
2021/12/20 11:35:22;;;;;;;17.75;7.88;;;;;;;;;;5031190;28;20033;-73
2021/12/20 11:37:48;;;;;;;160.02;64.60;;;;;;;;;;5031557;28;20661;-73
2021/12/20 11:40:16;;;;;;;133.90;64.53;;;;;;;;;;5030673;28;20033;-74
2021/12/20 11:42:41;;;;;;;63.10;40.65;;;;;;;;;;5030768;28;20056;-73
2021/12/20 11:45:09;;;;;;;38.15;24.83;;;;;;;;;;5029290;28;20065;-73
2021/12/20 11:47:43;;;;;;;31.60;19.92;;;;;;;;;;5030586;28;20499;-73
2021/12/20 11:50:12;;;;;;;15.02;5.97;;;;;;;;;;5030684;28;20017;-73
2021/12/20 11:52:40;;;;;;;16.38;6.25;;;;;;;;;;5029351;28;20059;-73
2021/12/20 11:55:25;;;;;;;11.23;5.30;;;;;;;;;;5030470;28;20028;-73
2021/12/20 11:57:52;;;;;;;9.27;3.60;;;;;;;;;;5030992;28;20102;-73
2021/12/20 12:00:22;;;;;;;11.10;4.10;;;;;;;;;;5030425;28;20215;-74
2021/12/20 12:03:09;;;;;;;7.88;3.15;;;;;;;;;;5030677;28;20029;-73
2021/12/20 12:05:51;;;;;;;13.27;2.90;;;;;;;;;;5015943;28;20060;-73
2021/12/20 12:08:24;;;;;;;8.85;3.00;;;;;;;;;;5030416;28;20116;-73
2021/12/20 12:10:51;;;;;;;9.13;2.90;;;;;;;;;;5030415;28;20407;-72
2021/12/20 12:13:18;;;;;;;9.98;3.30;;;;;;;;;;5030314;28;20022;-74
2021/12/20 12:16:03;;;;;;;12.55;2.60;;;;;;;;;;5030016;28;20508;-72
2021/12/20 12:18:46;;;;;;;6.20;2.50;;;;;;;;;;5030238;28;20472;-73
2021/12/20 12:21:34;;;;;;;7.05;2.70;;;;;;;;;;5030213;28;20033;-73
2021/12/20 12:23:59;;;;;;;7.88;2.30;;;;;;;;;;5029830;28;20559;-74
2021/12/20 12:26:34;;;;;;;9.77;2.10;;;;;;;;;;5029981;28;20100;-73
2021/12/20 12:29:01;;;;;;;5.60;1.90;;;;;;;;;;5030065;28;20037;-73
2021/12/20 12:31:27;;;;;;;6.97;2.30;;;;;;;;;;5029958;28;20036;-73
2021/12/20 12:34:06;;;;;;;8.38;2.15;;;;;;;;;;5029929;28;20108;-74
2021/12/20 12:36:38;;;;;;;6.07;1.70;;;;;;;;;;5030138;28;20026;-73
2021/12/20 12:39:37;;;;;;;6.38;1.95;;;;;;;;;;5029867;28;20022;-72
2021/12/20 12:42:02;;;;;;;7.30;1.95;;;;;;;;;;5000028;28;20101;-72
2021/12/20 12:44:29;;;;;;;5.03;1.20;;;;;;;;;;5028881;28;20412;-74
2021/12/20 12:47:03;;;;;;;9.75;1.90;;;;;;;;;;5028931;28;20041;-74
2021/12/20 12:49:34;;;;;;;3.40;1.40;;;;;;;;;;5029517;28;20029;-74
2021/12/20 12:52:18;;;;;;;8.25;4.40;;;;;;;;;;5029919;28;20033;-72
2021/12/20 12:54:44;;;;;;;9.02;4.18;;;;;;;;;;5029029;28;20026;-72
2021/12/20 12:57:12;;;;;;;8.05;3.30;;;;;;;;;;5029167;28;20030;-72
2021/12/20 12:59:57;;;;;;;6.63;2.25;;;;;;;;;;5028380;28;20211;-72
2021/12/20 13:02:28;;;;;;;6.18;1.75;;;;;;;;;;5029938;28;20156;-72
2021/12/20 13:05:06;;;;;;;7.60;2.40;;;;;;;;;;5029293;28;20342;-72
2021/12/20 13:07:34;;;;;;;9.07;2.65;;;;;;;;;;5028869;28;20057;-72
2021/12/20 13:10:28;;;;;;;10.77;4.32;;;;;;;;;;5027175;28;20076;-72
2021/12/20 13:13:06;;;;;;;6.30;2.28;;;;;;;;;;5029366;28;20517;-72
2021/12/20 13:18:08;;;;;;;4.63;2.28;;;;;;;;;;5028853;28;20029;-72
2021/12/20 13:20:40;;;;;;;6.38;2.13;;;;;;;;;;5028203;28;20029;-72
2021/12/20 13:23:19;;;;;;;6.70;3.47;;;;;;;;;;5028899;28;20382;-71
2021/12/20 13:25:55;;;;;;;7.85;3.72;;;;;;;;;;5027589;28;20025;-71
2021/12/20 13:28:26;;;;;;;18.60;8.95;;;;;;;;;;5028880;28;20029;-71
2021/12/20 13:30:55;;;;;;;10.68;4.07;;;;;;;;;;5028238;28;20380;-72
2021/12/20 13:33:26;;;;;;;9.20;4.65;;;;;;;;;;5029071;28;20133;-72
2021/12/20 13:35:52;;;;;;;6.10;3.35;;;;;;;;;;5028545;28;20022;-72
2021/12/20 13:38:26;;;;;;;8.65;4.00;;;;;;;;;;5028220;28;20025;-72
2021/12/20 13:40:53;;;;;;;12.10;3.45;;;;;;;;;;5028389;28;20029;-71
2021/12/20 13:43:25;;;;;;;13.25;6.63;;;;;;;;;;5028897;28;20029;-72
2021/12/20 13:46:28;;;;;;;13.23;5.68;;;;;;;;;;5029171;28;20606;-72
2021/12/20 13:49:05;;;;;;;6.53;2.08;;;;;;;;;;5028757;28;20033;-72
2021/12/20 13:51:51;;;;;;;8.18;1.95;;;;;;;;;;5028126;28;20025;-72
2021/12/20 13:54:29;;;;;;;8.02;3.10;;;;;;;;;;5026198;28;20434;-72
2021/12/20 13:57:03;;;;;;;5.00;1.83;;;;;;;;;;5022030;28;20033;-72
2021/12/20 13:59:35;;;;;;;11.50;2.33;;;;;;;;;;5024861;28;20030;-72
2021/12/20 14:02:04;;;;;;;7.55;1.92;;;;;;;;;;5026300;28;20072;-72
2021/12/20 14:04:38;;;;;;;4.57;1.90;;;;;;;;;;5025392;28;20044;-72
2021/12/20 14:07:27;;;;;;;9.27;2.17;;;;;;;;;;5020785;28;20138;-71
2021/12/20 14:10:07;;;;;;;6.57;1.77;;;;;;;;;;5027168;28;20036;-72
2021/12/20 14:12:48;;;;;;;7.78;1.95;;;;;;;;;;5025766;28;20025;-72
2021/12/20 14:15:42;;;;;;;6.15;2.00;;;;;;;;;;5026840;28;20034;-72
2021/12/20 14:18:09;;;;;;;5.57;1.88;;;;;;;;;;5020211;28;20033;-71
2021/12/20 14:21:01;;;;;;;6.43;1.50;;;;;;;;;;5027817;28;20025;-71
2021/12/20 14:23:26;;;;;;;2.03;1.30;;;;;;;;;;5027234;28;20030;-71
2021/12/20 14:26:01;;;;;;;5.38;1.77;;;;;;;;;;5028023;28;20585;-72
2021/12/20 14:28:28;;;;;;;6.28;2.17;;;;;;;;;;5030077;28;20033;-72
2021/12/20 14:30:57;;;;;;;7.80;3.42;;;;;;;;;;5028784;28;20029;-72
2021/12/20 14:33:32;;;;;;;16.15;6.82;;;;;;;;;;5032114;28;20028;-72
2021/12/20 14:36:08;;;;;;;16.13;6.78;;;;;;;;;;5031322;28;20029;-72
2021/12/20 14:38:42;;;;;;;17.38;7.25;;;;;;;;;;5031866;28;20029;-72
2021/12/20 14:41:34;;;;;;;22.75;9.02;;;;;;;;;;5032016;28;20025;-72
2021/12/20 14:44:28;;;;;;;13.15;5.55;;;;;;;;;;5031781;28;20586;-72
2021/12/20 14:47:00;;;;;;;6.25;2.28;;;;;;;;;;5031059;28;20061;-72
2021/12/20 14:49:34;;;;;;;5.97;2.40;;;;;;;;;;5030812;28;20470;-72
2021/12/20 14:52:14;;;;;;;6.38;2.35;;;;;;;;;;5031678;28;20079;-72
2021/12/20 14:54:43;;;;;;;8.80;2.55;;;;;;;;;;5031341;28;20038;-72
2021/12/20 14:57:14;;;;;;;6.60;2.35;;;;;;;;;;5030963;28;20396;-71
2021/12/20 14:59:40;;;;;;;9.40;2.80;;;;;;;;;;5031503;28;20545;-72
2021/12/20 15:02:09;;;;;;;8.38;2.22;;;;;;;;;;5031407;28;20029;-72
2021/12/20 15:04:34;;;;;;;6.47;2.13;;;;;;;;;;5030562;28;20033;-72
2021/12/20 15:07:02;;;;;;;5.95;1.67;;;;;;;;;;5030530;28;20505;-72